createdAt,value
2022-11-08T00:01:39.521Z,88.72
2022-11-08T00:04:09.053Z,88.40
2022-11-08T00:06:54.171Z,88.72
2022-11-08T00:09:39.657Z,88.66
2022-11-08T00:12:24.878Z,88.95
2022-11-08T00:14:51.887Z,88.19
2022-11-08T00:17:20.175Z,88.27
2022-11-08T00:19:46.706Z,88.16
2022-11-08T00:22:14.421Z,87.64
2022-11-08T00:24:41.318Z,87.86
2022-11-08T00:27:12.063Z,88.25
2022-11-08T00:29:38.713Z,87.76
2022-11-08T00:32:07.035Z,87.99
2022-11-08T00:34:34.416Z,87.67
2022-11-08T00:37:01.787Z,86.82
2022-11-08T00:39:28.468Z,86.85
2022-11-08T00:41:54.992Z,86.95
2022-11-08T00:44:22.141Z,87.04
2022-11-08T00:46:48.993Z,86.15
2022-11-08T00:49:15.593Z,86.21
2022-11-08T00:51:42.275Z,86.73
2022-11-08T00:54:12.402Z,86.46
2022-11-08T00:56:38.946Z,86.78
2022-11-08T00:59:05.461Z,86.00
2022-11-08T01:01:32.262Z,86.16
2022-11-08T01:03:58.883Z,86.02
2022-11-08T01:06:26.125Z,86.06
2022-11-08T01:08:52.882Z,86.39
2022-11-08T01:11:22.389Z,85.82
2022-11-08T01:13:49.736Z,85.69
2022-11-08T01:16:19.655Z,86.55
2022-11-08T01:18:47.053Z,86.19
2022-11-08T01:21:14.422Z,86.25
2022-11-08T01:23:42.309Z,86.78
2022-11-08T01:26:12.503Z,87.30
2022-11-08T01:28:39.207Z,86.57
2022-11-08T01:31:08.772Z,86.99
2022-11-08T01:33:35.718Z,87.00
2022-11-08T01:36:02.155Z,87.37
2022-11-08T01:38:28.662Z,86.87
2022-11-08T01:40:55.101Z,87.06
2022-11-08T01:43:30.376Z,87.36
2022-11-08T01:46:28.162Z,86.97
2022-11-08T01:49:13.307Z,87.11
2022-11-08T01:51:46.197Z,87.60
2022-11-08T01:54:18.460Z,87.71
2022-11-08T01:56:45.314Z,87.32
2022-11-08T01:59:14.843Z,87.75
2022-11-08T02:01:42.116Z,87.61
2022-11-08T03:02:53.437Z,88.80
2022-11-08T03:05:20.442Z,88.57
2022-11-08T03:07:46.975Z,88.23
2022-11-08T03:10:14.538Z,88.00
2022-11-08T03:12:41.636Z,87.32
2022-11-08T03:15:09.351Z,86.85
2022-11-08T03:17:36.077Z,87.10
2022-11-08T03:20:03.448Z,86.64
2022-11-08T03:22:30.147Z,87.48
2022-11-08T03:24:56.596Z,86.96
2022-11-08T03:27:23.455Z,86.48
2022-11-08T03:29:50.043Z,86.13
2022-11-08T03:32:16.709Z,86.96
2022-11-08T03:34:43.192Z,87.07
2022-11-08T03:37:10.672Z,86.97
2022-11-08T03:39:37.133Z,87.42
2022-11-08T03:42:04.601Z,86.91
2022-11-08T03:44:32.353Z,87.71
2022-11-08T03:47:00.203Z,88.00
2022-11-08T03:49:27.325Z,87.76
2022-11-08T03:51:54.574Z,89.17
2022-11-08T03:54:21.088Z,88.37
2022-11-08T03:56:47.719Z,88.90
2022-11-08T03:59:14.246Z,89.71
2022-11-08T04:01:40.920Z,89.76
2022-11-08T04:04:07.521Z,89.34
2022-11-08T04:06:34.017Z,89.76
2022-11-08T04:09:00.513Z,90.11
2022-11-08T04:11:45.662Z,90.72
2022-11-08T04:14:30.451Z,90.38
2022-11-08T04:16:56.904Z,90.52
2022-11-08T04:19:41.734Z,91.62
2022-11-08T04:22:10.826Z,90.44
2022-11-08T04:24:37.599Z,91.63
2022-11-08T04:27:04.042Z,90.41
2022-11-08T04:29:30.851Z,90.38
2022-11-08T04:31:57.261Z,90.52
2022-11-08T04:34:23.749Z,91.16
2022-11-08T04:36:50.350Z,90.83
2022-11-08T04:39:16.813Z,92.36
2022-11-08T04:41:43.242Z,91.69
2022-11-08T04:44:10.305Z,91.81
2022-11-08T04:46:36.772Z,92.27
2022-11-08T04:49:03.490Z,91.67
2022-11-08T04:51:31.957Z,91.93
2022-11-08T04:54:00.871Z,92.37
2022-11-08T04:56:29.556Z,91.91
2022-11-08T04:58:58.084Z,92.29
2022-11-08T05:01:27.333Z,91.87
2022-11-08T05:03:54.584Z,91.61
2022-11-08T05:06:26.433Z,92.10
2022-11-08T05:08:55.233Z,92.09
2022-11-08T05:11:24.233Z,91.56
2022-11-08T05:13:51.965Z,91.20
2022-11-08T05:16:26.971Z,91.37
2022-11-08T05:18:53.905Z,91.03
2022-11-08T05:21:40.609Z,90.86
2022-11-08T05:24:09.709Z,90.79
2022-11-08T05:26:38.512Z,90.05
2022-11-08T05:29:05.666Z,89.61
2022-11-08T05:31:32.471Z,88.83
2022-11-08T05:34:00.621Z,88.32
2022-11-08T05:36:28.182Z,88.23
2022-11-08T05:38:55.551Z,88.34
2022-11-08T05:41:24.106Z,87.77
2022-11-08T05:43:52.410Z,87.96
2022-11-08T05:46:21.035Z,88.64
2022-11-08T05:48:48.161Z,88.09
2022-11-08T05:51:17.390Z,88.71
2022-11-08T05:53:44.083Z,88.33
2022-11-08T05:56:11.659Z,88.94
2022-11-08T05:58:38.198Z,88.62
2022-11-08T06:01:11.149Z,87.45
2022-11-08T06:03:37.841Z,88.32
2022-11-08T06:06:09.868Z,88.36
2022-11-08T06:08:37.180Z,88.17
2022-11-08T06:11:14.694Z,87.78
2022-11-08T06:13:41.740Z,87.30
2022-11-08T06:16:14.086Z,87.45
2022-11-08T06:18:41.082Z,87.20
2022-11-08T06:21:11.150Z,87.12
2022-11-08T06:23:37.657Z,86.76
2022-11-08T06:26:04.279Z,87.00
2022-11-08T06:28:31.576Z,86.34
2022-11-08T06:30:59.545Z,86.88
2022-11-08T06:33:26.363Z,86.09
2022-11-08T06:35:53.124Z,85.97
2022-11-08T06:38:19.607Z,85.47
2022-11-08T06:40:46.593Z,85.94
2022-11-08T06:43:19.022Z,85.32
2022-11-08T06:45:46.419Z,85.83
2022-11-08T06:48:12.964Z,86.03
2022-11-08T06:50:39.381Z,85.61
2022-11-08T06:53:08.411Z,85.80
2022-11-08T06:55:35.548Z,86.34
2022-11-08T06:58:03.329Z,87.19
2022-11-08T07:00:29.986Z,86.85
2022-11-08T07:02:58.897Z,87.04
2022-11-08T07:05:26.966Z,87.64
2022-11-08T07:07:54.064Z,87.36
2022-11-08T07:10:22.658Z,88.00
2022-11-08T07:12:50.844Z,87.56
2022-11-08T07:15:17.527Z,87.88
2022-11-08T07:17:44.032Z,87.57
2022-11-08T07:20:10.959Z,87.69
2022-11-08T07:22:37.401Z,88.32
2022-11-08T07:25:04.193Z,87.99
2022-11-08T07:27:30.680Z,88.11
2022-11-08T07:29:57.125Z,87.75
2022-11-08T07:32:23.604Z,87.49
2022-11-08T07:34:50.082Z,86.98
2022-11-08T07:37:16.611Z,86.43
2022-11-08T07:39:43.152Z,86.75
2022-11-08T07:42:09.617Z,86.54
2022-11-08T07:44:36.115Z,85.85
2022-11-08T07:47:02.750Z,86.23
2022-11-08T07:49:29.196Z,85.94
2022-11-08T07:51:55.642Z,85.71
2022-11-08T07:54:22.040Z,85.85
2022-11-08T07:56:48.478Z,85.60
2022-11-08T07:59:15.388Z,85.64
2022-11-08T08:01:41.936Z,85.49
2022-11-08T08:04:09.432Z,85.32
2022-11-08T08:06:35.971Z,85.31
2022-11-08T08:09:02.444Z,85.50
2022-11-08T08:11:33.489Z,85.47
2022-11-08T08:14:00.341Z,85.41
2022-11-08T08:16:26.802Z,85.55
2022-11-08T08:18:56.351Z,85.59
2022-11-08T08:21:23.300Z,85.38
2022-11-08T08:23:49.711Z,85.33
2022-11-08T08:26:16.135Z,85.00
2022-11-08T08:28:42.590Z,84.73
2022-11-08T08:31:09.078Z,84.41
2022-11-08T08:33:35.703Z,84.11
2022-11-08T08:36:02.512Z,83.49
2022-11-08T08:38:30.495Z,83.27
2022-11-08T08:40:57.485Z,82.49
2022-11-08T08:43:24.275Z,82.59
2022-11-08T08:45:50.892Z,81.81
2022-11-08T08:48:17.859Z,81.11
2022-11-08T08:50:44.567Z,81.13
2022-11-08T08:53:11.061Z,80.64
2022-11-08T08:55:39.244Z,79.88
2022-11-08T08:58:05.993Z,79.57
2022-11-08T09:03:20.206Z,79.62
2022-11-08T09:05:47.427Z,79.68
2022-11-08T09:08:14.496Z,79.27
2022-11-08T09:10:41.459Z,79.65
2022-11-08T09:13:07.891Z,79.78
2022-11-08T09:15:34.429Z,80.37
2022-11-08T09:18:01.065Z,80.43
2022-11-08T09:20:27.687Z,80.09
2022-11-08T09:22:54.117Z,79.60
2022-11-08T09:25:20.570Z,80.01
2022-11-08T09:27:47.046Z,79.06
2022-11-08T09:30:13.630Z,77.90
2022-11-08T09:32:59.665Z,76.92
2022-11-08T09:35:26.549Z,76.99
2022-11-08T09:37:53.617Z,75.81
2022-11-08T09:40:37.356Z,75.48
2022-11-08T09:43:48.673Z,75.71
2022-11-08T09:46:26.159Z,74.75
2022-11-08T09:48:54.760Z,73.49
2022-11-08T09:51:24.468Z,73.90
2022-11-08T09:53:59.598Z,74.07
2022-11-08T09:56:35.725Z,74.25
2022-11-08T09:59:13.275Z,74.38
2022-11-08T10:01:40.096Z,73.81
2022-11-08T10:04:16.259Z,73.15
2022-11-08T10:07:02.204Z,73.00
2022-11-08T10:09:53.563Z,71.74
2022-11-08T10:12:22.725Z,71.43
2022-11-08T10:15:19.681Z,72.23
2022-11-08T10:17:58.281Z,72.08
2022-11-08T10:20:43.412Z,71.68
2022-11-08T10:23:19.194Z,71.14
2022-11-08T10:25:52.099Z,71.41
2022-11-08T10:28:24.522Z,70.83
2022-11-08T10:30:53.456Z,70.02
2022-11-08T10:33:34.712Z,67.75
2022-11-08T10:36:09.168Z,66.00
2022-11-08T10:39:08.800Z,64.85
2022-11-08T10:42:10.470Z,64.41
2022-11-08T10:44:38.153Z,64.37
2022-11-08T10:47:12.444Z,64.29
2022-11-08T10:49:41.677Z,64.59
2022-11-08T10:52:25.993Z,64.57
2022-11-08T10:54:54.384Z,64.72
2022-11-08T10:57:29.793Z,65.73
2022-11-08T10:59:57.267Z,66.60
2022-11-08T11:02:34.907Z,67.21
2022-11-08T11:05:16.501Z,68.33
2022-11-08T11:08:00.661Z,68.92
2022-11-08T11:10:34.708Z,69.28
2022-11-08T11:13:18.141Z,69.71
2022-11-08T11:15:51.172Z,70.69
2022-11-08T11:18:26.393Z,70.76
2022-11-08T11:21:18.844Z,71.52
2022-11-08T11:23:48.155Z,71.57
2022-11-08T11:26:29.365Z,71.50
2022-11-08T11:29:15.748Z,70.37
2022-11-08T11:31:44.711Z,69.97
2022-11-08T11:34:17.001Z,69.42
2022-11-08T11:36:55.627Z,68.94
2022-11-08T11:39:27.471Z,66.85
2022-11-08T11:42:17.833Z,64.37
2022-11-08T11:44:58.550Z,62.62
2022-11-08T11:47:49.177Z,59.20
2022-11-08T11:50:32.725Z,57.75
2022-11-08T11:53:02.195Z,57.43
2022-11-08T11:55:45.100Z,56.12
2022-11-08T11:58:30.748Z,55.90
2022-11-08T12:01:14.957Z,57.20
2022-11-08T12:03:55.476Z,59.32
2022-11-08T12:06:40.626Z,59.78
2022-11-08T12:09:32.267Z,60.68
2022-11-08T12:12:26.065Z,61.33
2022-11-08T12:15:20.149Z,61.61
2022-11-08T12:18:02.351Z,61.67
2022-11-08T12:20:37.631Z,62.38
2022-11-08T12:23:40.024Z,62.88
2022-11-08T12:26:22.126Z,63.54
2022-11-08T12:29:00.728Z,64.52
2022-11-08T12:31:33.816Z,64.67
2022-11-08T12:34:05.775Z,65.39
2022-11-08T12:36:44.324Z,65.69
2022-11-08T12:39:35.689Z,66.33
2022-11-08T12:42:20.877Z,67.20
2022-11-08T12:45:05.338Z,67.47
2022-11-08T12:47:43.546Z,67.44
2022-11-08T12:50:20.485Z,67.33
2022-11-08T12:53:17.212Z,67.29
2022-11-08T12:55:47.782Z,67.34
2022-11-08T12:58:23.105Z,66.72
2022-11-08T13:00:52.978Z,66.71
2022-11-08T13:03:42.780Z,66.30
2022-11-08T13:06:21.300Z,67.02
2022-11-08T13:09:01.570Z,66.81
2022-11-08T13:11:35.959Z,66.73
2022-11-08T13:14:02.809Z,66.63
2022-11-08T13:16:37.864Z,66.96
2022-11-08T13:19:05.831Z,67.00
2022-11-08T13:21:38.133Z,67.03
2022-11-08T13:24:13.956Z,67.38
2022-11-08T13:26:52.022Z,67.62
2022-11-08T13:29:21.041Z,68.24
2022-11-08T13:31:56.278Z,68.89
2022-11-08T13:34:50.561Z,69.22
2022-11-08T13:37:54.163Z,69.97
2022-11-08T13:40:46.805Z,70.48
2022-11-08T13:43:30.913Z,70.70
2022-11-08T13:46:28.109Z,71.09
2022-11-08T13:48:57.426Z,71.43
2022-11-08T13:51:29.307Z,71.27
2022-11-08T13:53:59.048Z,71.95
2022-11-08T13:56:44.653Z,71.73
2022-11-08T13:59:29.983Z,71.71
2022-11-08T14:01:58.841Z,72.19
2022-11-08T14:04:40.514Z,71.94
2022-11-08T14:07:25.955Z,71.88
2022-11-08T14:10:03.876Z,71.94
2022-11-08T14:12:50.700Z,72.65
2022-11-08T14:15:23.872Z,72.27
2022-11-08T14:18:26.374Z,72.36
2022-11-08T14:20:54.842Z,72.69
2022-11-08T14:23:50.989Z,72.87
2022-11-08T14:26:23.027Z,72.33
2022-11-08T14:28:51.039Z,72.30
2022-11-08T14:31:30.398Z,72.84
2022-11-08T14:33:57.967Z,72.65
2022-11-08T14:36:26.365Z,72.90
2022-11-08T14:39:15.314Z,72.08
2022-11-08T14:41:47.103Z,72.50
2022-11-08T14:44:16.078Z,72.32
2022-11-08T14:46:42.812Z,72.61
2022-11-08T14:49:13.549Z,71.63
2022-11-08T14:51:41.006Z,69.49
2022-11-08T14:54:38.341Z,68.25
2022-11-08T14:57:04.851Z,67.22
2022-11-08T14:59:31.317Z,58.66
2022-11-08T15:01:58.881Z,49.36
2022-11-08T15:04:27.572Z,45.75
2022-11-08T15:06:58.877Z,45.87
2022-11-08T15:09:29.316Z,47.75
2022-11-08T15:12:00.065Z,50.11
2022-11-08T15:14:30.346Z,52.98
2022-11-08T15:17:02.612Z,55.07
2022-11-08T15:19:46.165Z,57.09
2022-11-08T15:22:46.364Z,58.97
2022-11-08T15:25:29.027Z,60.50
2022-11-08T15:27:56.964Z,61.51
2022-11-08T15:30:36.892Z,62.76
2022-11-08T15:33:04.480Z,63.73
2022-11-08T15:35:39.158Z,64.72
2022-11-08T15:38:26.946Z,65.42
2022-11-08T15:40:55.569Z,65.67
2022-11-08T15:43:31.321Z,66.80
2022-11-08T15:45:59.830Z,67.43
2022-11-08T15:48:27.787Z,67.24
2022-11-08T15:50:58.142Z,67.86
2022-11-08T15:53:26.677Z,68.03
2022-11-08T15:56:04.637Z,68.35
2022-11-08T15:58:32.607Z,69.48
2022-11-08T16:01:01.476Z,69.47
2022-11-08T16:03:28.759Z,69.56
2022-11-08T16:05:55.250Z,69.56
2022-11-08T16:08:22.271Z,69.54
2022-11-08T16:10:54.547Z,70.19
2022-11-08T16:13:30.319Z,69.61
2022-11-08T16:15:58.512Z,70.16
2022-11-08T16:18:25.097Z,69.96
2022-11-08T16:20:51.569Z,70.71
2022-11-08T16:23:18.081Z,70.63
2022-11-08T16:25:52.627Z,70.53
2022-11-08T16:28:24.333Z,70.88
2022-11-08T16:30:51.286Z,70.89
2022-11-08T16:33:18.919Z,71.13
2022-11-08T16:35:45.487Z,70.84
2022-11-08T16:38:12.021Z,71.04
2022-11-08T16:40:41.194Z,71.25
2022-11-08T16:43:11.449Z,71.18
2022-11-08T16:46:03.924Z,71.29
2022-11-08T16:48:26.689Z,71.38
2022-11-08T16:51:00.350Z,71.30
2022-11-08T16:53:27.028Z,71.04
2022-11-08T16:55:53.507Z,71.68
2022-11-08T16:58:20.311Z,71.32
2022-11-08T17:00:47.057Z,71.73
2022-11-08T17:03:18.464Z,71.95
2022-11-08T17:05:44.930Z,71.66
2022-11-08T17:08:11.506Z,71.64
2022-11-08T17:10:38.340Z,71.87
2022-11-08T17:13:04.795Z,72.17
2022-11-08T17:15:31.270Z,71.77
2022-11-08T17:17:58.926Z,72.22
2022-11-08T17:20:26.492Z,72.21
2022-11-08T17:22:54.058Z,72.31
2022-11-08T17:25:23.644Z,72.23
2022-11-08T17:27:51.788Z,72.12
2022-11-08T17:30:23.838Z,72.24
2022-11-08T17:32:53.036Z,72.24
2022-11-08T17:35:19.580Z,72.55
2022-11-08T17:38:04.663Z,72.21
2022-11-08T17:40:31.254Z,71.91
2022-11-08T17:42:57.783Z,71.75
2022-11-08T17:45:24.316Z,71.51
2022-11-08T17:47:50.740Z,71.47
2022-11-08T17:50:17.212Z,71.53
2022-11-08T17:52:43.755Z,71.13
2022-11-08T17:55:10.314Z,71.43
2022-11-08T17:57:36.767Z,71.84
2022-11-08T18:00:08.634Z,71.24
2022-11-08T18:02:39.074Z,71.06
2022-11-08T18:05:05.871Z,71.31
2022-11-08T18:07:32.367Z,71.37
2022-11-08T18:09:58.827Z,70.88
2022-11-08T18:12:26.488Z,71.29
2022-11-08T18:14:53.018Z,71.26
2022-11-08T18:17:22.192Z,71.29
2022-11-08T18:19:48.603Z,70.89
2022-11-08T18:22:15.028Z,71.39
2022-11-08T18:24:44.740Z,71.50
2022-11-08T18:27:13.998Z,71.12
2022-11-08T18:29:40.420Z,71.14
2022-11-08T18:32:07.194Z,71.16
2022-11-08T18:34:33.649Z,71.56
2022-11-08T18:37:00.208Z,72.33
2022-11-08T18:39:26.709Z,72.25
2022-11-08T18:41:53.207Z,72.54
2022-11-08T18:44:19.723Z,72.59
2022-11-08T18:46:46.157Z,73.25
2022-11-08T18:49:12.685Z,73.73
2022-11-08T18:51:39.192Z,73.74
2022-11-08T18:54:05.698Z,73.92
2022-11-08T18:56:32.156Z,73.97
2022-11-08T18:58:58.626Z,73.69
2022-11-08T19:01:25.155Z,73.76
2022-11-08T19:03:51.638Z,73.75
2022-11-08T19:06:19.378Z,73.98
2022-11-08T19:08:45.836Z,74.16
2022-11-08T19:11:12.959Z,74.05
2022-11-08T19:13:40.276Z,74.29
2022-11-08T19:16:16.452Z,74.49
2022-11-08T19:18:44.663Z,74.40
2022-11-08T19:21:17.442Z,74.43
2022-11-08T19:23:45.846Z,74.43
2022-11-08T19:26:15.264Z,74.77
2022-11-08T19:28:45.463Z,74.56
2022-11-08T19:31:18.481Z,74.61
2022-11-08T19:33:45.505Z,74.65
2022-11-08T19:36:14.572Z,74.79
2022-11-08T19:38:41.573Z,74.87
2022-11-08T19:41:11.052Z,74.83
2022-11-08T19:43:38.703Z,74.60
2022-11-08T19:46:08.391Z,75.18
2022-11-08T19:48:37.814Z,74.96
2022-11-08T19:51:06.887Z,75.21
2022-11-08T19:53:34.119Z,75.11
2022-11-08T19:56:06.419Z,75.62
2022-11-08T19:58:34.309Z,75.67
2022-11-08T20:01:07.815Z,75.36
2022-11-08T20:03:34.703Z,75.76
2022-11-08T20:06:01.168Z,75.59
2022-11-08T20:08:28.870Z,75.40
2022-11-08T20:10:55.328Z,75.52
2022-11-08T20:13:21.780Z,75.84
2022-11-08T20:15:48.476Z,75.98
2022-11-08T20:18:15.878Z,76.22
2022-11-08T20:20:43.691Z,76.38
2022-11-08T20:23:15.474Z,76.23
2022-11-08T20:25:41.986Z,76.35
2022-11-08T20:28:08.461Z,76.50
2022-11-08T20:30:35.334Z,76.62
2022-11-08T20:33:01.747Z,76.80
2022-11-08T20:35:28.258Z,76.94
2022-11-08T20:37:57.710Z,77.28
2022-11-08T20:40:24.155Z,77.61
2022-11-08T20:42:50.572Z,77.41
2022-11-08T20:45:17.142Z,77.63
2022-11-08T20:47:43.608Z,78.00
2022-11-08T20:50:10.699Z,77.69
2022-11-08T20:52:37.157Z,78.16
2022-11-08T20:55:03.723Z,78.36
2022-11-08T20:57:30.227Z,78.44
2022-11-08T20:59:56.678Z,78.50
2022-11-08T21:02:23.149Z,78.67
2022-11-08T21:04:49.607Z,78.68
2022-11-08T21:10:27.552Z,79.01
2022-11-08T21:12:49.052Z,79.22
2022-11-08T21:15:15.640Z,79.37
2022-11-08T21:17:42.091Z,79.06
2022-11-08T21:20:09.066Z,79.15
2022-11-08T21:22:37.168Z,79.43
2022-11-08T21:25:03.964Z,79.30
2022-11-08T21:27:37.006Z,79.15
2022-11-08T21:30:04.007Z,79.05
2022-11-08T21:32:30.584Z,78.95
2022-11-08T21:34:57.110Z,79.10
2022-11-08T21:37:23.616Z,78.89
2022-11-08T21:39:50.013Z,78.71
2022-11-08T21:42:16.436Z,78.85
2022-11-08T21:44:42.877Z,78.82
2022-11-08T21:47:09.580Z,78.36
2022-11-08T21:49:35.996Z,78.40
2022-11-08T21:52:03.586Z,78.47
2022-11-08T21:54:30.075Z,77.85
2022-11-08T21:56:56.484Z,77.89
2022-11-08T21:59:22.902Z,77.74
2022-11-08T22:01:49.654Z,78.06
2022-11-08T22:04:16.115Z,78.33
2022-11-08T22:06:46.531Z,77.51
2022-11-08T22:09:14.157Z,77.44
2022-11-08T22:11:41.756Z,76.69
2022-11-08T22:14:08.203Z,76.36
2022-11-08T22:16:34.752Z,75.98
2022-11-08T22:19:05.717Z,75.81
2022-11-08T22:21:40.703Z,75.36
2022-11-08T22:24:10.990Z,75.22
2022-11-08T22:26:38.330Z,74.77
2022-11-08T22:29:04.973Z,74.50
2022-11-08T22:31:31.724Z,74.34
2022-11-08T22:33:58.174Z,74.71
2022-11-08T22:36:24.622Z,74.32
2022-11-08T22:38:51.136Z,73.96
2022-11-08T22:41:19.346Z,73.84
2022-11-08T22:43:46.638Z,73.07
2022-11-08T22:46:13.961Z,72.61
2022-11-08T22:48:40.815Z,71.90
2022-11-08T22:51:07.814Z,71.66
2022-11-08T22:53:34.897Z,71.51
2022-11-08T22:56:04.456Z,71.87
2022-11-08T22:58:33.821Z,70.86
2022-11-08T23:01:00.286Z,70.94
2022-11-08T23:03:26.729Z,70.80
2022-11-08T23:05:55.924Z,70.51
2022-11-08T23:08:24.484Z,70.33
2022-11-08T23:11:09.807Z,69.91
2022-11-08T23:13:55.751Z,69.74
2022-11-08T23:16:33.557Z,69.90
2022-11-08T23:19:20.174Z,69.68
2022-11-08T23:22:06.066Z,70.03
2022-11-08T23:24:33.014Z,69.46
2022-11-08T23:27:19.370Z,69.27
2022-11-08T23:30:04.187Z,69.29
2022-11-08T23:32:30.862Z,68.95
2022-11-08T23:34:57.398Z,68.20
2022-11-08T23:37:23.888Z,68.76
2022-11-08T23:40:08.899Z,68.46
2022-11-08T23:42:53.827Z,68.11
2022-11-08T23:45:20.516Z,68.17
2022-11-08T23:47:47.068Z,68.30
2022-11-08T23:50:13.677Z,68.58
2022-11-08T23:52:40.231Z,68.65
2022-11-08T23:55:07.021Z,68.88
2022-11-08T23:57:33.444Z,68.97
2022-11-08T23:59:59.903Z,68.70
